sensor_id;sensor_type;location;lat;lon;timestamp;P1;durP1;ratioP1;P2;durP2;ratioP2
69087;SDS011;56190;43.562;5.036;2023-01-10T00:00:38;4.75;;;2.45;;
69087;SDS011;56190;43.562;5.036;2023-01-10T00:03:03;5.60;;;2.60;;
69087;SDS011;56190;43.562;5.036;2023-01-10T00:05:29;6.50;;;2.17;;
69087;SDS011;56190;43.562;5.036;2023-01-10T00:07:54;7.10;;;2.75;;
69087;SDS011;56190;43.562;5.036;2023-01-10T00:10:20;7.18;;;3.15;;
69087;SDS011;56190;43.562;5.036;2023-01-10T00:12:45;8.82;;;5.40;;
69087;SDS011;56190;43.562;5.036;2023-01-10T00:15:31;9.10;;;3.90;;
69087;SDS011;56190;43.562;5.036;2023-01-10T00:17:56;7.53;;;4.18;;
69087;SDS011;56190;43.562;5.036;2023-01-10T00:20:21;6.20;;;4.40;;
69087;SDS011;56190;43.562;5.036;2023-01-10T00:22:47;6.60;;;3.55;;
69087;SDS011;56190;43.562;5.036;2023-01-10T00:25:13;5.90;;;2.22;;
69087;SDS011;56190;43.562;5.036;2023-01-10T00:27:39;5.80;;;2.85;;
69087;SDS011;56190;43.562;5.036;2023-01-10T00:30:04;6.97;;;3.28;;
69087;SDS011;56190;43.562;5.036;2023-01-10T00:32:39;5.25;;;3.17;;
69087;SDS011;56190;43.562;5.036;2023-01-10T00:35:04;7.13;;;4.10;;
69087;SDS011;56190;43.562;5.036;2023-01-10T00:37:30;6.03;;;3.47;;
69087;SDS011;56190;43.562;5.036;2023-01-10T00:39:56;4.95;;;3.55;;
69087;SDS011;56190;43.562;5.036;2023-01-10T00:42:21;4.85;;;2.70;;
69087;SDS011;56190;43.562;5.036;2023-01-10T00:45:05;3.38;;;1.50;;
69087;SDS011;56190;43.562;5.036;2023-01-10T00:47:30;4.25;;;2.00;;
69087;SDS011;56190;43.562;5.036;2023-01-10T00:49:55;5.95;;;2.20;;
69087;SDS011;56190;43.562;5.036;2023-01-10T00:52:21;3.38;;;2.03;;
69087;SDS011;56190;43.562;5.036;2023-01-10T00:54:46;4.55;;;2.30;;
69087;SDS011;56190;43.562;5.036;2023-01-10T00:57:11;4.03;;;2.00;;
69087;SDS011;56190;43.562;5.036;2023-01-10T00:59:36;4.97;;;2.15;;
69087;SDS011;56190;43.562;5.036;2023-01-10T01:02:02;5.15;;;2.28;;
69087;SDS011;56190;43.562;5.036;2023-01-10T01:04:27;6.78;;;3.22;;
69087;SDS011;56190;43.562;5.036;2023-01-10T01:06:52;7.50;;;4.05;;
69087;SDS011;56190;43.562;5.036;2023-01-10T01:09:17;6.75;;;3.85;;
69087;SDS011;56190;43.562;5.036;2023-01-10T01:11:43;7.47;;;4.70;;
69087;SDS011;56190;43.562;5.036;2023-01-10T01:14:08;5.45;;;2.83;;
69087;SDS011;56190;43.562;5.036;2023-01-10T01:16:33;5.10;;;2.95;;
69087;SDS011;56190;43.562;5.036;2023-01-10T01:18:59;6.80;;;3.78;;
69087;SDS011;56190;43.562;5.036;2023-01-10T01:21:24;6.50;;;3.60;;
69087;SDS011;56190;43.562;5.036;2023-01-10T01:23:55;7.38;;;4.47;;
69087;SDS011;56190;43.562;5.036;2023-01-10T01:26:24;8.18;;;4.15;;
69087;SDS011;56190;43.562;5.036;2023-01-10T01:28:50;6.00;;;3.55;;
69087;SDS011;56190;43.562;5.036;2023-01-10T01:31:15;7.60;;;3.60;;
69087;SDS011;56190;43.562;5.036;2023-01-10T01:33:40;7.32;;;3.78;;
69087;SDS011;56190;43.562;5.036;2023-01-10T01:36:09;9.88;;;4.68;;
69087;SDS011;56190;43.562;5.036;2023-01-10T01:38:35;7.75;;;4.90;;
69087;SDS011;56190;43.562;5.036;2023-01-10T01:41:00;11.18;;;6.82;;
69087;SDS011;56190;43.562;5.036;2023-01-10T01:43:26;26.17;;;13.65;;
69087;SDS011;56190;43.562;5.036;2023-01-10T01:45:52;27.23;;;13.35;;
69087;SDS011;56190;43.562;5.036;2023-01-10T01:48:36;14.77;;;8.40;;
69087;SDS011;56190;43.562;5.036;2023-01-10T01:53:33;40.55;;;21.45;;
69087;SDS011;56190;43.562;5.036;2023-01-10T01:56:01;42.60;;;21.75;;
69087;SDS011;56190;43.562;5.036;2023-01-10T01:58:30;19.80;;;10.38;;
69087;SDS011;56190;43.562;5.036;2023-01-10T02:00:57;18.45;;;9.60;;
69087;SDS011;56190;43.562;5.036;2023-01-10T02:03:23;27.88;;;13.35;;
69087;SDS011;56190;43.562;5.036;2023-01-10T02:05:48;16.70;;;9.30;;
69087;SDS011;56190;43.562;5.036;2023-01-10T02:08:14;9.13;;;4.85;;
69087;SDS011;56190;43.562;5.036;2023-01-10T02:13:04;5.18;;;2.22;;
69087;SDS011;56190;43.562;5.036;2023-01-10T02:15:30;5.05;;;2.28;;
69087;SDS011;56190;43.562;5.036;2023-01-10T02:17:56;9.13;;;4.93;;
69087;SDS011;56190;43.562;5.036;2023-01-10T02:20:21;6.03;;;2.67;;
69087;SDS011;56190;43.562;5.036;2023-01-10T02:44:18;3.70;;;1.30;;
69087;SDS011;56190;43.562;5.036;2023-01-10T02:46:45;3.05;;;1.25;;
69087;SDS011;56190;43.562;5.036;2023-01-10T02:49:11;3.78;;;1.23;;
69087;SDS011;56190;43.562;5.036;2023-01-10T02:51:36;2.40;;;0.82;;
69087;SDS011;56190;43.562;5.036;2023-01-10T03:01:43;2.58;;;1.17;;
69087;SDS011;56190;43.562;5.036;2023-01-10T03:06:55;4.05;;;1.40;;
69087;SDS011;56190;43.562;5.036;2023-01-10T03:09:34;3.15;;;1.20;;
69087;SDS011;56190;43.562;5.036;2023-01-10T03:12:13;3.53;;;1.20;;
69087;SDS011;56190;43.562;5.036;2023-01-10T03:14:41;3.63;;;1.30;;
69087;SDS011;56190;43.562;5.036;2023-01-10T03:17:08;9.30;;;3.72;;
69087;SDS011;56190;43.562;5.036;2023-01-10T03:19:37;5.70;;;2.67;;
69087;SDS011;56190;43.562;5.036;2023-01-10T03:22:04;12.82;;;7.05;;
69087;SDS011;56190;43.562;5.036;2023-01-10T03:24:32;7.22;;;4.00;;
69087;SDS011;56190;43.562;5.036;2023-01-10T03:27:01;10.15;;;5.25;;
69087;SDS011;56190;43.562;5.036;2023-01-10T03:29:28;17.33;;;8.18;;
69087;SDS011;56190;43.562;5.036;2023-01-10T03:31:57;24.85;;;11.85;;
69087;SDS011;56190;43.562;5.036;2023-01-10T03:34:24;15.75;;;7.10;;
69087;SDS011;56190;43.562;5.036;2023-01-10T03:44:37;13.27;;;7.78;;
69087;SDS011;56190;43.562;5.036;2023-01-10T03:47:15;8.25;;;3.80;;
69087;SDS011;56190;43.562;5.036;2023-01-10T03:49:42;6.18;;;2.90;;
69087;SDS011;56190;43.562;5.036;2023-01-10T03:52:09;9.30;;;5.57;;
69087;SDS011;56190;43.562;5.036;2023-01-10T03:54:35;6.45;;;2.90;;
69087;SDS011;56190;43.562;5.036;2023-01-10T03:57:01;2.92;;;1.40;;
69087;SDS011;56190;43.562;5.036;2023-01-10T03:59:26;5.43;;;2.45;;
69087;SDS011;56190;43.562;5.036;2023-01-10T04:01:52;5.03;;;1.65;;
69087;SDS011;56190;43.562;5.036;2023-01-10T04:04:18;3.33;;;1.17;;
69087;SDS011;56190;43.562;5.036;2023-01-10T04:06:43;6.95;;;2.10;;
69087;SDS011;56190;43.562;5.036;2023-01-10T04:09:08;4.65;;;1.40;;
69087;SDS011;56190;43.562;5.036;2023-01-10T04:11:34;2.30;;;1.02;;
69087;SDS011;56190;43.562;5.036;2023-01-10T04:13:59;3.10;;;0.90;;
69087;SDS011;56190;43.562;5.036;2023-01-10T04:16:24;5.38;;;3.10;;
69087;SDS011;56190;43.562;5.036;2023-01-10T04:18:49;5.57;;;2.20;;
69087;SDS011;56190;43.562;5.036;2023-01-10T04:21:15;6.05;;;2.63;;
69087;SDS011;56190;43.562;5.036;2023-01-10T04:23:40;2.30;;;1.55;;
69087;SDS011;56190;43.562;5.036;2023-01-10T04:26:05;2.95;;;1.23;;
69087;SDS011;56190;43.562;5.036;2023-01-10T04:28:30;3.33;;;1.25;;
69087;SDS011;56190;43.562;5.036;2023-01-10T04:30:56;3.10;;;1.13;;
69087;SDS011;56190;43.562;5.036;2023-01-10T04:33:21;4.00;;;1.13;;
69087;SDS011;56190;43.562;5.036;2023-01-10T04:35:50;2.97;;;1.00;;
69087;SDS011;56190;43.562;5.036;2023-01-10T04:38:15;2.67;;;1.00;;
69087;SDS011;56190;43.562;5.036;2023-01-10T04:40:41;2.50;;;1.00;;
69087;SDS011;56190;43.562;5.036;2023-01-10T04:43:06;3.10;;;1.00;;
69087;SDS011;56190;43.562;5.036;2023-01-10T04:45:32;4.22;;;1.60;;
69087;SDS011;56190;43.562;5.036;2023-01-10T04:47:57;4.53;;;2.15;;
69087;SDS011;56190;43.562;5.036;2023-01-10T04:50:24;5.47;;;3.40;;
69087;SDS011;56190;43.562;5.036;2023-01-10T04:52:49;5.07;;;2.90;;
69087;SDS011;56190;43.562;5.036;2023-01-10T04:55:14;7.25;;;4.90;;
69087;SDS011;56190;43.562;5.036;2023-01-10T04:57:40;5.25;;;2.75;;
69087;SDS011;56190;43.562;5.036;2023-01-10T05:00:05;6.55;;;3.38;;
69087;SDS011;56190;43.562;5.036;2023-01-10T05:02:30;6.70;;;3.60;;
69087;SDS011;56190;43.562;5.036;2023-01-10T05:04:56;5.78;;;2.80;;
69087;SDS011;56190;43.562;5.036;2023-01-10T05:07:21;4.93;;;2.97;;
69087;SDS011;56190;43.562;5.036;2023-01-10T05:09:46;4.03;;;2.03;;
69087;SDS011;56190;43.562;5.036;2023-01-10T05:12:11;4.60;;;2.67;;
69087;SDS011;56190;43.562;5.036;2023-01-10T05:14:37;5.70;;;2.95;;
69087;SDS011;56190;43.562;5.036;2023-01-10T05:17:02;5.03;;;1.80;;
69087;SDS011;56190;43.562;5.036;2023-01-10T05:19:27;5.93;;;2.25;;
69087;SDS011;56190;43.562;5.036;2023-01-10T05:21:53;3.40;;;1.88;;
69087;SDS011;56190;43.562;5.036;2023-01-10T05:24:18;5.15;;;2.85;;
69087;SDS011;56190;43.562;5.036;2023-01-10T05:26:43;6.05;;;2.67;;
69087;SDS011;56190;43.562;5.036;2023-01-10T05:29:11;5.47;;;1.90;;
69087;SDS011;56190;43.562;5.036;2023-01-10T05:31:38;5.60;;;1.95;;
69087;SDS011;56190;43.562;5.036;2023-01-10T05:34:03;4.35;;;2.00;;
69087;SDS011;56190;43.562;5.036;2023-01-10T05:36:28;4.35;;;2.08;;
69087;SDS011;56190;43.562;5.036;2023-01-10T05:38:54;5.55;;;1.90;;
69087;SDS011;56190;43.562;5.036;2023-01-10T05:41:19;4.70;;;1.77;;
69087;SDS011;56190;43.562;5.036;2023-01-10T05:43:44;6.05;;;3.17;;
69087;SDS011;56190;43.562;5.036;2023-01-10T05:46:10;10.40;;;5.10;;
69087;SDS011;56190;43.562;5.036;2023-01-10T05:48:35;7.18;;;2.35;;
69087;SDS011;56190;43.562;5.036;2023-01-10T05:51:00;7.30;;;2.80;;
69087;SDS011;56190;43.562;5.036;2023-01-10T05:53:25;4.75;;;2.33;;
69087;SDS011;56190;43.562;5.036;2023-01-10T05:55:53;5.75;;;2.08;;
69087;SDS011;56190;43.562;5.036;2023-01-10T05:58:19;5.78;;;1.77;;
69087;SDS011;56190;43.562;5.036;2023-01-10T06:00:44;6.40;;;2.35;;
69087;SDS011;56190;43.562;5.036;2023-01-10T06:03:10;8.70;;;2.20;;
69087;SDS011;56190;43.562;5.036;2023-01-10T06:05:35;3.95;;;1.70;;
69087;SDS011;56190;43.562;5.036;2023-01-10T06:08:00;7.07;;;2.42;;
69087;SDS011;56190;43.562;5.036;2023-01-10T06:10:25;4.97;;;1.70;;
69087;SDS011;56190;43.562;5.036;2023-01-10T06:12:51;6.57;;;2.42;;
69087;SDS011;56190;43.562;5.036;2023-01-10T06:15:16;6.25;;;2.20;;
69087;SDS011;56190;43.562;5.036;2023-01-10T06:17:41;6.40;;;1.52;;
69087;SDS011;56190;43.562;5.036;2023-01-10T06:20:08;6.18;;;1.70;;
69087;SDS011;56190;43.562;5.036;2023-01-10T06:22:34;7.32;;;2.22;;
69087;SDS011;56190;43.562;5.036;2023-01-10T06:24:59;5.28;;;1.60;;
69087;SDS011;56190;43.562;5.036;2023-01-10T06:27:24;8.13;;;1.40;;
69087;SDS011;56190;43.562;5.036;2023-01-10T06:29:49;4.35;;;1.48;;
69087;SDS011;56190;43.562;5.036;2023-01-10T06:32:15;6.70;;;2.42;;
69087;SDS011;56190;43.562;5.036;2023-01-10T06:34:40;4.85;;;1.30;;
69087;SDS011;56190;43.562;5.036;2023-01-10T06:37:05;6.22;;;1.70;;
69087;SDS011;56190;43.562;5.036;2023-01-10T06:39:30;5.22;;;1.33;;
69087;SDS011;56190;43.562;5.036;2023-01-10T06:41:55;4.05;;;1.63;;
69087;SDS011;56190;43.562;5.036;2023-01-10T06:44:21;4.97;;;1.80;;
69087;SDS011;56190;43.562;5.036;2023-01-10T06:46:46;6.55;;;1.65;;
69087;SDS011;56190;43.562;5.036;2023-01-10T06:49:11;6.70;;;1.85;;
69087;SDS011;56190;43.562;5.036;2023-01-10T06:51:36;7.45;;;1.90;;
69087;SDS011;56190;43.562;5.036;2023-01-10T06:54:02;5.90;;;1.90;;
69087;SDS011;56190;43.562;5.036;2023-01-10T06:56:27;7.60;;;2.58;;
69087;SDS011;56190;43.562;5.036;2023-01-10T06:58:52;7.60;;;2.30;;
69087;SDS011;56190;43.562;5.036;2023-01-10T07:01:18;9.00;;;2.67;;
69087;SDS011;56190;43.562;5.036;2023-01-10T07:03:44;7.43;;;2.35;;
69087;SDS011;56190;43.562;5.036;2023-01-10T07:06:09;4.68;;;1.73;;
69087;SDS011;56190;43.562;5.036;2023-01-10T07:08:38;5.40;;;2.22;;
69087;SDS011;56190;43.562;5.036;2023-01-10T07:11:04;5.38;;;1.60;;
69087;SDS011;56190;43.562;5.036;2023-01-10T07:13:29;5.20;;;1.98;;
69087;SDS011;56190;43.562;5.036;2023-01-10T07:16:04;7.65;;;2.47;;
69087;SDS011;56190;43.562;5.036;2023-01-10T07:18:30;8.88;;;1.58;;
69087;SDS011;56190;43.562;5.036;2023-01-10T07:20:56;4.88;;;1.60;;
69087;SDS011;56190;43.562;5.036;2023-01-10T07:23:21;4.55;;;1.30;;
69087;SDS011;56190;43.562;5.036;2023-01-10T07:25:46;6.63;;;1.60;;
69087;SDS011;56190;43.562;5.036;2023-01-10T07:28:12;7.18;;;1.70;;
69087;SDS011;56190;43.562;5.036;2023-01-10T07:30:37;7.13;;;1.40;;
69087;SDS011;56190;43.562;5.036;2023-01-10T07:33:02;7.13;;;1.80;;
69087;SDS011;56190;43.562;5.036;2023-01-10T07:35:28;6.30;;;1.52;;
69087;SDS011;56190;43.562;5.036;2023-01-10T07:37:56;7.68;;;1.50;;
69087;SDS011;56190;43.562;5.036;2023-01-10T07:40:21;4.68;;;1.52;;
69087;SDS011;56190;43.562;5.036;2023-01-10T07:42:47;5.07;;;1.45;;
69087;SDS011;56190;43.562;5.036;2023-01-10T07:45:12;7.80;;;1.80;;
69087;SDS011;56190;43.562;5.036;2023-01-10T07:47:37;5.82;;;2.00;;
69087;SDS011;56190;43.562;5.036;2023-01-10T07:50:03;11.05;;;2.40;;
69087;SDS011;56190;43.562;5.036;2023-01-10T07:52:28;7.57;;;1.35;;
69087;SDS011;56190;43.562;5.036;2023-01-10T07:54:54;7.43;;;2.17;;
69087;SDS011;56190;43.562;5.036;2023-01-10T07:57:19;5.45;;;1.65;;
69087;SDS011;56190;43.562;5.036;2023-01-10T07:59:44;5.82;;;1.45;;
69087;SDS011;56190;43.562;5.036;2023-01-10T08:02:10;6.90;;;2.50;;
69087;SDS011;56190;43.562;5.036;2023-01-10T08:04:35;4.90;;;1.65;;
69087;SDS011;56190;43.562;5.036;2023-01-10T08:07:02;8.60;;;1.98;;
69087;SDS011;56190;43.562;5.036;2023-01-10T08:09:27;4.50;;;1.70;;
69087;SDS011;56190;43.562;5.036;2023-01-10T08:11:52;5.53;;;1.60;;
69087;SDS011;56190;43.562;5.036;2023-01-10T08:14:18;9.05;;;1.95;;
69087;SDS011;56190;43.562;5.036;2023-01-10T08:16:43;8.57;;;1.67;;
69087;SDS011;56190;43.562;5.036;2023-01-10T08:19:08;5.68;;;2.03;;
69087;SDS011;56190;43.562;5.036;2023-01-10T08:21:34;5.45;;;2.03;;
69087;SDS011;56190;43.562;5.036;2023-01-10T08:23:59;6.63;;;1.90;;
69087;SDS011;56190;43.562;5.036;2023-01-10T08:26:26;6.90;;;2.35;;
69087;SDS011;56190;43.562;5.036;2023-01-10T08:28:51;6.68;;;2.13;;
69087;SDS011;56190;43.562;5.036;2023-01-10T08:31:16;6.32;;;1.98;;
69087;SDS011;56190;43.562;5.036;2023-01-10T08:33:42;8.85;;;2.35;;
69087;SDS011;56190;43.562;5.036;2023-01-10T08:36:17;5.82;;;2.50;;
69087;SDS011;56190;43.562;5.036;2023-01-10T08:38:43;8.40;;;2.70;;
69087;SDS011;56190;43.562;5.036;2023-01-10T08:41:08;8.73;;;2.60;;
69087;SDS011;56190;43.562;5.036;2023-01-10T08:43:34;7.00;;;2.35;;
69087;SDS011;56190;43.562;5.036;2023-01-10T08:45:59;8.85;;;3.25;;
69087;SDS011;56190;43.562;5.036;2023-01-10T08:48:24;5.32;;;2.30;;
69087;SDS011;56190;43.562;5.036;2023-01-10T08:50:49;7.82;;;2.00;;
69087;SDS011;56190;43.562;5.036;2023-01-10T08:53:15;5.93;;;1.92;;
69087;SDS011;56190;43.562;5.036;2023-01-10T08:55:40;6.13;;;1.77;;
69087;SDS011;56190;43.562;5.036;2023-01-10T08:58:05;7.10;;;1.70;;
69087;SDS011;56190;43.562;5.036;2023-01-10T09:00:31;7.30;;;2.10;;
69087;SDS011;56190;43.562;5.036;2023-01-10T09:02:56;7.32;;;1.60;;
69087;SDS011;56190;43.562;5.036;2023-01-10T09:05:21;7.10;;;1.63;;
69087;SDS011;56190;43.562;5.036;2023-01-10T09:07:47;4.57;;;1.70;;
69087;SDS011;56190;43.562;5.036;2023-01-10T09:10:12;6.15;;;2.00;;
69087;SDS011;56190;43.562;5.036;2023-01-10T09:12:37;5.53;;;1.60;;
69087;SDS011;56190;43.562;5.036;2023-01-10T09:15:31;5.60;;;1.65;;
69087;SDS011;56190;43.562;5.036;2023-01-10T09:17:57;6.00;;;1.90;;
69087;SDS011;56190;43.562;5.036;2023-01-10T09:20:23;5.53;;;1.90;;
69087;SDS011;56190;43.562;5.036;2023-01-10T09:22:48;6.07;;;1.60;;
69087;SDS011;56190;43.562;5.036;2023-01-10T09:25:14;6.63;;;1.80;;
69087;SDS011;56190;43.562;5.036;2023-01-10T09:27:39;6.47;;;1.95;;
69087;SDS011;56190;43.562;5.036;2023-01-10T09:30:05;3.50;;;1.70;;
69087;SDS011;56190;43.562;5.036;2023-01-10T09:32:30;6.35;;;2.20;;
69087;SDS011;56190;43.562;5.036;2023-01-10T09:34:55;6.03;;;2.17;;
69087;SDS011;56190;43.562;5.036;2023-01-10T09:37:20;5.15;;;1.55;;
69087;SDS011;56190;43.562;5.036;2023-01-10T09:39:46;7.82;;;2.15;;
69087;SDS011;56190;43.562;5.036;2023-01-10T09:49:42;5.35;;;2.20;;
69087;SDS011;56190;43.562;5.036;2023-01-10T09:52:19;6.65;;;3.05;;
69087;SDS011;56190;43.562;5.036;2023-01-10T09:54:46;9.25;;;3.03;;
69087;SDS011;56190;43.562;5.036;2023-01-10T09:57:13;8.43;;;3.10;;
69087;SDS011;56190;43.562;5.036;2023-01-10T09:59:40;7.35;;;2.55;;
69087;SDS011;56190;43.562;5.036;2023-01-10T10:02:16;6.22;;;1.92;;
69087;SDS011;56190;43.562;5.036;2023-01-10T10:04:43;6.18;;;1.92;;
69087;SDS011;56190;43.562;5.036;2023-01-10T10:07:13;6.70;;;2.30;;
69087;SDS011;56190;43.562;5.036;2023-01-10T10:09:39;4.95;;;1.83;;
69087;SDS011;56190;43.562;5.036;2023-01-10T10:12:09;8.15;;;1.98;;
69087;SDS011;56190;43.562;5.036;2023-01-10T10:14:44;5.35;;;1.98;;
69087;SDS011;56190;43.562;5.036;2023-01-10T10:22:26;3.25;;;1.50;;
69087;SDS011;56190;43.562;5.036;2023-01-10T10:27:38;7.00;;;2.42;;
69087;SDS011;56190;43.562;5.036;2023-01-10T10:35:08;6.30;;;1.90;;
69087;SDS011;56190;43.562;5.036;2023-01-10T10:37:41;10.82;;;2.30;;
69087;SDS011;56190;43.562;5.036;2023-01-10T10:42:41;4.78;;;1.77;;
69087;SDS011;56190;43.562;5.036;2023-01-10T10:45:18;5.43;;;1.98;;
69087;SDS011;56190;43.562;5.036;2023-01-10T10:47:45;4.22;;;1.60;;
69087;SDS011;56190;43.562;5.036;2023-01-10T10:52:40;7.15;;;2.05;;
69087;SDS011;56190;43.562;5.036;2023-01-10T10:55:10;7.60;;;1.75;;
69087;SDS011;56190;43.562;5.036;2023-01-10T10:57:36;4.07;;;1.40;;
69087;SDS011;56190;43.562;5.036;2023-01-10T11:00:03;6.75;;;1.75;;
69087;SDS011;56190;43.562;5.036;2023-01-10T11:02:29;5.10;;;1.73;;
69087;SDS011;56190;43.562;5.036;2023-01-10T11:05:01;6.43;;;1.98;;
69087;SDS011;56190;43.562;5.036;2023-01-10T11:07:28;3.55;;;1.35;;
69087;SDS011;56190;43.562;5.036;2023-01-10T11:09:56;5.35;;;1.70;;
69087;SDS011;56190;43.562;5.036;2023-01-10T11:12:50;6.22;;;1.60;;
69087;SDS011;56190;43.562;5.036;2023-01-10T11:18:04;5.57;;;1.88;;
69087;SDS011;56190;43.562;5.036;2023-01-10T11:20:29;5.65;;;1.63;;
69087;SDS011;56190;43.562;5.036;2023-01-10T11:22:55;6.10;;;1.85;;
69087;SDS011;56190;43.562;5.036;2023-01-10T11:25:21;4.43;;;1.60;;
69087;SDS011;56190;43.562;5.036;2023-01-10T11:27:50;5.20;;;1.45;;
69087;SDS011;56190;43.562;5.036;2023-01-10T11:30:26;4.13;;;1.40;;
69087;SDS011;56190;43.562;5.036;2023-01-10T11:33:04;6.45;;;1.88;;
69087;SDS011;56190;43.562;5.036;2023-01-10T11:35:31;5.78;;;1.63;;
69087;SDS011;56190;43.562;5.036;2023-01-10T11:37:58;4.78;;;1.30;;
69087;SDS011;56190;43.562;5.036;2023-01-10T11:40:24;6.38;;;1.80;;
69087;SDS011;56190;43.562;5.036;2023-01-10T11:42:51;4.05;;;1.52;;
69087;SDS011;56190;43.562;5.036;2023-01-10T11:47:45;7.22;;;2.05;;
69087;SDS011;56190;43.562;5.036;2023-01-10T11:50:20;7.28;;;1.45;;
69087;SDS011;56190;43.562;5.036;2023-01-10T11:52:46;5.30;;;1.80;;
69087;SDS011;56190;43.562;5.036;2023-01-10T11:55:31;4.43;;;1.50;;
69087;SDS011;56190;43.562;5.036;2023-01-10T11:58:06;5.05;;;1.33;;
69087;SDS011;56190;43.562;5.036;2023-01-10T12:00:54;5.45;;;1.60;;
69087;SDS011;56190;43.562;5.036;2023-01-10T12:03:26;4.50;;;1.30;;
69087;SDS011;56190;43.562;5.036;2023-01-10T12:05:54;6.78;;;1.80;;
69087;SDS011;56190;43.562;5.036;2023-01-10T12:08:25;6.35;;;1.67;;
69087;SDS011;56190;43.562;5.036;2023-01-10T12:10:55;6.60;;;1.30;;
69087;SDS011;56190;43.562;5.036;2023-01-10T12:13:21;7.63;;;1.58;;
69087;SDS011;56190;43.562;5.036;2023-01-10T12:15:46;3.72;;;1.40;;
69087;SDS011;56190;43.562;5.036;2023-01-10T12:18:13;4.95;;;1.38;;
69087;SDS011;56190;43.562;5.036;2023-01-10T12:20:48;5.80;;;1.80;;
69087;SDS011;56190;43.562;5.036;2023-01-10T12:23:24;4.28;;;1.33;;
69087;SDS011;56190;43.562;5.036;2023-01-10T12:25:49;6.18;;;1.40;;
69087;SDS011;56190;43.562;5.036;2023-01-10T12:28:17;5.85;;;1.38;;
69087;SDS011;56190;43.562;5.036;2023-01-10T12:30:44;4.20;;;1.48;;
69087;SDS011;56190;43.562;5.036;2023-01-10T12:33:21;3.85;;;1.35;;
69087;SDS011;56190;43.562;5.036;2023-01-10T12:40:49;5.07;;;1.48;;
69087;SDS011;56190;43.562;5.036;2023-01-10T12:43:16;4.85;;;1.25;;
69087;SDS011;56190;43.562;5.036;2023-01-10T12:48:41;4.53;;;1.42;;
69087;SDS011;56190;43.562;5.036;2023-01-10T12:51:11;6.00;;;1.27;;
69087;SDS011;56190;43.562;5.036;2023-01-10T12:53:38;4.43;;;0.98;;
69087;SDS011;56190;43.562;5.036;2023-01-10T12:56:05;4.15;;;1.02;;
69087;SDS011;56190;43.562;5.036;2023-01-10T12:58:41;3.88;;;1.30;;
69087;SDS011;56190;43.562;5.036;2023-01-10T13:01:08;2.88;;;1.20;;
69087;SDS011;56190;43.562;5.036;2023-01-10T13:03:34;6.05;;;1.52;;
69087;SDS011;56190;43.562;5.036;2023-01-10T13:06:00;5.13;;;1.40;;
69087;SDS011;56190;43.562;5.036;2023-01-10T13:08:26;4.38;;;1.20;;
69087;SDS011;56190;43.562;5.036;2023-01-10T13:10:53;7.28;;;1.40;;
69087;SDS011;56190;43.562;5.036;2023-01-10T13:18:23;3.50;;;1.00;;
69087;SDS011;56190;43.562;5.036;2023-01-10T13:21:00;3.60;;;1.38;;
69087;SDS011;56190;43.562;5.036;2023-01-10T13:23:27;6.18;;;1.70;;
69087;SDS011;56190;43.562;5.036;2023-01-10T13:25:58;6.75;;;1.85;;
69087;SDS011;56190;43.562;5.036;2023-01-10T13:28:28;2.88;;;1.20;;
69087;SDS011;56190;43.562;5.036;2023-01-10T13:30:57;5.95;;;1.23;;
69087;SDS011;56190;43.562;5.036;2023-01-10T13:33:25;6.75;;;1.30;;
69087;SDS011;56190;43.562;5.036;2023-01-10T13:35:52;4.38;;;1.50;;
69087;SDS011;56190;43.562;5.036;2023-01-10T13:38:22;6.15;;;1.70;;
69087;SDS011;56190;43.562;5.036;2023-01-10T13:40:55;4.85;;;1.23;;
69087;SDS011;56190;43.562;5.036;2023-01-10T13:45:46;6.78;;;1.63;;
69087;SDS011;56190;43.562;5.036;2023-01-10T13:48:24;5.20;;;1.42;;
69087;SDS011;56190;43.562;5.036;2023-01-10T13:50:51;5.55;;;1.27;;
69087;SDS011;56190;43.562;5.036;2023-01-10T14:00:51;3.72;;;1.20;;
69087;SDS011;56190;43.562;5.036;2023-01-10T14:06:03;4.07;;;1.40;;
69087;SDS011;56190;43.562;5.036;2023-01-10T14:08:30;5.38;;;1.52;;
69087;SDS011;56190;43.562;5.036;2023-01-10T14:11:08;4.72;;;1.42;;
69087;SDS011;56190;43.562;5.036;2023-01-10T14:13:34;6.13;;;1.52;;
69087;SDS011;56190;43.562;5.036;2023-01-10T14:16:00;6.40;;;1.77;;
69087;SDS011;56190;43.562;5.036;2023-01-10T14:18:35;4.82;;;1.48;;
69087;SDS011;56190;43.562;5.036;2023-01-10T14:21:06;5.50;;;1.60;;
69087;SDS011;56190;43.562;5.036;2023-01-10T14:25:57;5.72;;;1.70;;
69087;SDS011;56190;43.562;5.036;2023-01-10T14:28:29;6.10;;;1.33;;
69087;SDS011;56190;43.562;5.036;2023-01-10T14:33:20;3.92;;;1.23;;
69087;SDS011;56190;43.562;5.036;2023-01-10T14:35:47;3.67;;;1.48;;
69087;SDS011;56190;43.562;5.036;2023-01-10T14:38:18;4.03;;;1.60;;
69087;SDS011;56190;43.562;5.036;2023-01-10T14:40:47;7.45;;;1.60;;
69087;SDS011;56190;43.562;5.036;2023-01-10T14:43:15;4.63;;;1.60;;
69087;SDS011;56190;43.562;5.036;2023-01-10T14:45:52;4.95;;;1.52;;
69087;SDS011;56190;43.562;5.036;2023-01-10T14:48:30;7.00;;;1.73;;
69087;SDS011;56190;43.562;5.036;2023-01-10T14:51:06;3.67;;;1.40;;
69087;SDS011;56190;43.562;5.036;2023-01-10T14:53:31;3.75;;;1.52;;
69087;SDS011;56190;43.562;5.036;2023-01-10T14:55:56;4.88;;;1.38;;
69087;SDS011;56190;43.562;5.036;2023-01-10T14:58:23;8.25;;;2.15;;
69087;SDS011;56190;43.562;5.036;2023-01-10T15:00:48;6.07;;;1.40;;
69087;SDS011;56190;43.562;5.036;2023-01-10T15:03:18;10.63;;;1.80;;
69087;SDS011;56190;43.562;5.036;2023-01-10T15:05:48;4.10;;;1.20;;
69087;SDS011;56190;43.562;5.036;2023-01-10T15:08:21;4.90;;;1.65;;
69087;SDS011;56190;43.562;5.036;2023-01-10T15:10:48;6.95;;;1.70;;
69087;SDS011;56190;43.562;5.036;2023-01-10T15:13:14;5.85;;;1.40;;
69087;SDS011;56190;43.562;5.036;2023-01-10T15:15:40;5.97;;;2.25;;
69087;SDS011;56190;43.562;5.036;2023-01-10T15:20:51;5.50;;;1.52;;
69087;SDS011;56190;43.562;5.036;2023-01-10T15:23:17;5.30;;;1.98;;
69087;SDS011;56190;43.562;5.036;2023-01-10T15:25:43;5.63;;;1.65;;
69087;SDS011;56190;43.562;5.036;2023-01-10T15:28:12;7.05;;;2.08;;
69087;SDS011;56190;43.562;5.036;2023-01-10T15:30:39;5.32;;;1.88;;
69087;SDS011;56190;43.562;5.036;2023-01-10T15:33:05;5.78;;;1.77;;
69087;SDS011;56190;43.562;5.036;2023-01-10T15:35:31;8.80;;;2.08;;
69087;SDS011;56190;43.562;5.036;2023-01-10T15:37:58;7.45;;;1.88;;
69087;SDS011;56190;43.562;5.036;2023-01-10T15:40:30;5.97;;;1.98;;
69087;SDS011;56190;43.562;5.036;2023-01-10T15:43:38;6.85;;;1.92;;
69087;SDS011;56190;43.562;5.036;2023-01-10T15:45:44;6.55;;;1.80;;
69087;SDS011;56190;43.562;5.036;2023-01-10T15:50:58;7.85;;;2.15;;
69087;SDS011;56190;43.562;5.036;2023-01-10T15:56:10;7.32;;;2.25;;
69087;SDS011;56190;43.562;5.036;2023-01-10T15:58:37;5.18;;;2.00;;
69087;SDS011;56190;43.562;5.036;2023-01-10T16:01:02;6.82;;;2.17;;
69087;SDS011;56190;43.562;5.036;2023-01-10T16:03:32;4.72;;;1.75;;
69087;SDS011;56190;43.562;5.036;2023-01-10T16:05:58;9.13;;;2.63;;
69087;SDS011;56190;43.562;5.036;2023-01-10T16:08:25;7.18;;;2.28;;
69087;SDS011;56190;43.562;5.036;2023-01-10T16:10:55;6.93;;;2.50;;
69087;SDS011;56190;43.562;5.036;2023-01-10T16:13:21;7.82;;;2.90;;
69087;SDS011;56190;43.562;5.036;2023-01-10T16:15:53;6.75;;;2.25;;
69087;SDS011;56190;43.562;5.036;2023-01-10T16:18:18;5.18;;;2.05;;
69087;SDS011;56190;43.562;5.036;2023-01-10T16:20:44;5.78;;;1.75;;
69087;SDS011;56190;43.562;5.036;2023-01-10T16:23:15;8.05;;;2.42;;
69087;SDS011;56190;43.562;5.036;2023-01-10T16:25:42;8.00;;;2.50;;
69087;SDS011;56190;43.562;5.036;2023-01-10T16:28:12;4.90;;;1.95;;
69087;SDS011;56190;43.562;5.036;2023-01-10T16:30:38;5.95;;;1.98;;
69087;SDS011;56190;43.562;5.036;2023-01-10T16:33:22;7.20;;;2.05;;
69087;SDS011;56190;43.562;5.036;2023-01-10T16:35:49;8.40;;;2.15;;
69087;SDS011;56190;43.562;5.036;2023-01-10T16:38:15;7.30;;;2.42;;
69087;SDS011;56190;43.562;5.036;2023-01-10T16:40:51;6.97;;;2.40;;